Time;durP1;ratioP1;P1;durP2;ratioP2;P2;SDS_P1;SDS_P2;PMS_P1;PMS_P2;Temp;Humidity;BMP_temperature;BMP_pressure;BME280_temperature;BME280_humidity;BME280_pressure;Samples;Min_cycle;Max_cycle;Signal;HPM_P1;HPM_P2
2022/05/19 00:01:33;;;;;;;5.80;2.27;;;12.40;99.90;;;;;;5049751;28;20534;-63
2022/05/19 00:04:00;;;;;;;5.57;1.90;;;12.40;99.90;;;;;;5049808;28;20445;-62
2022/05/19 00:06:27;;;;;;;4.70;2.17;;;12.50;99.90;;;;;;5049498;28;20465;-62
2022/05/19 00:08:54;;;;;;;5.00;2.10;;;12.60;99.90;;;;;;5049347;28;20847;-63
2022/05/19 00:11:29;;;;;;;5.10;2.17;;;12.50;99.90;;;;;;5049082;28;20528;-61
2022/05/19 00:13:56;;;;;;;6.97;2.13;;;12.40;99.90;;;;;;5049351;28;20445;-62
2022/05/19 00:16:23;;;;;;;4.60;2.00;;;12.50;99.90;;;;;;5049510;28;20811;-62
2022/05/19 00:18:51;;;;;;;3.80;1.80;;;12.40;99.90;;;;;;5049492;28;21000;-62
2022/05/19 00:21:18;;;;;;;10.30;2.37;;;12.40;99.90;;;;;;5049035;28;20481;-62
2022/05/19 00:23:45;;;;;;;9.43;2.07;;;12.40;99.90;;;;;;5049318;28;20953;-62
2022/05/19 00:26:12;;;;;;;5.40;2.50;;;12.20;99.90;;;;;;5049192;28;20458;-63
2022/05/19 00:28:40;;;;;;;6.57;2.27;;;12.20;99.90;;;;;;5049301;28;20486;-60
2022/05/19 00:31:08;;;;;;;4.10;1.90;;;12.10;99.90;;;;;;5049258;28;20966;-62
2022/05/19 00:33:35;;;;;;;4.97;2.10;;;12.20;99.90;;;;;;5049416;28;20445;-60
2022/05/19 00:36:08;;;;;;;5.80;2.00;;;12.30;99.90;;;;;;5049001;28;20516;-62
2022/05/19 00:38:35;;;;;;;5.23;2.30;;;12.40;99.90;;;;;;5048909;28;20540;-62
2022/05/19 00:41:02;;;;;;;6.93;2.40;;;12.30;99.90;;;;;;5048786;28;20500;-61
2022/05/19 00:43:31;;;;;;;5.27;2.23;;;12.40;99.90;;;;;;5049222;28;20957;-62
2022/05/19 00:46:06;;;;;;;8.90;2.20;;;12.40;99.90;;;;;;5050992;28;20549;-61
2022/05/19 00:48:45;;;;;;;4.50;2.43;;;12.50;99.90;;;;;;5052911;28;20489;-63
2022/05/19 00:51:14;;;;;;;7.97;2.20;;;12.50;99.90;;;;;;5052715;28;20481;-61
2022/05/19 00:53:47;;;;;;;4.30;2.20;;;12.50;99.90;;;;;;5052882;28;20946;-63
2022/05/19 00:56:18;;;;;;;4.73;2.60;;;12.50;99.90;;;;;;5053073;28;20453;-61
2022/05/19 00:58:49;;;;;;;5.60;3.23;;;12.40;99.90;;;;;;5052870;28;20445;-59
2022/05/19 01:01:19;;;;;;;7.60;3.80;;;12.20;99.90;;;;;;5052430;28;20474;-62
2022/05/19 01:03:51;;;;;;;4.90;3.20;;;12.20;99.90;;;;;;5052819;28;20454;-62
2022/05/19 01:06:20;;;;;;;6.17;4.00;;;12.10;99.90;;;;;;5052717;28;20863;-61
2022/05/19 01:08:52;;;;;;;7.00;3.90;;;11.90;99.90;;;;;;5052552;28;20485;-59
2022/05/19 01:11:19;;;;;;;5.97;3.93;;;11.80;99.90;;;;;;5052509;28;20473;-60
2022/05/19 01:13:46;;;;;;;6.50;3.60;;;11.80;99.90;;;;;;5052310;28;20458;-59
2022/05/19 01:16:14;;;;;;;6.13;3.80;;;11.60;99.90;;;;;;5052328;28;20453;-60
2022/05/19 01:18:44;;;;;;;6.73;3.97;;;11.80;99.90;;;;;;5052178;28;20442;-61
2022/05/19 01:21:14;;;;;;;6.63;3.83;;;12.00;99.90;;;;;;5052372;28;20528;-60
2022/05/19 01:23:54;;;;;;;7.47;4.10;;;12.10;99.90;;;;;;5051925;28;20537;-61
2022/05/19 01:26:30;;;;;;;7.13;4.03;;;12.10;99.90;;;;;;5052320;28;20797;-61
2022/05/19 01:29:00;;;;;;;8.43;3.67;;;12.20;99.90;;;;;;5052068;28;20493;-62
2022/05/19 01:31:29;;;;;;;8.00;5.03;;;12.40;99.90;;;;;;5052106;28;20485;-62
2022/05/19 01:33:56;;;;;;;6.10;3.80;;;12.60;99.90;;;;;;5052332;28;20523;-63
2022/05/19 01:36:23;;;;;;;6.27;4.83;;;12.20;99.90;;;;;;5052201;28;20445;-61
2022/05/19 01:38:57;;;;;;;8.73;3.93;;;12.00;99.90;;;;;;5051642;28;20450;-63
2022/05/19 01:41:32;;;;;;;5.80;4.10;;;11.60;99.90;;;;;;5051405;28;20501;-60
2022/05/19 01:44:15;;;;;;;10.53;5.20;;;11.70;99.90;;;;;;5052062;28;20460;-62
2022/05/19 01:46:44;;;;;;;7.40;4.97;;;11.80;99.90;;;;;;5051690;28;20511;-61
2022/05/19 01:49:28;;;;;;;5.70;4.43;;;11.40;99.90;;;;;;5051542;28;20489;-62
2022/05/19 01:52:02;;;;;;;6.60;4.43;;;11.70;99.90;;;;;;5051599;28;20557;-62
2022/05/19 01:54:39;;;;;;;6.97;5.20;;;12.00;99.90;;;;;;5051943;28;20653;-59
2022/05/19 01:57:10;;;;;;;10.77;5.50;;;12.00;99.90;;;;;;5051685;28;20468;-60
2022/05/19 01:59:49;;;;;;;10.27;5.00;;;12.10;99.90;;;;;;5051401;28;20500;-61
2022/05/19 02:02:24;;;;;;;6.20;4.60;;;11.80;99.90;;;;;;5051304;28;20861;-61
2022/05/19 02:04:55;;;;;;;8.13;5.30;;;11.80;99.90;;;;;;5051008;28;20450;-62
2022/05/19 02:07:23;;;;;;;5.63;4.27;;;11.90;99.90;;;;;;5051546;28;20450;-62
2022/05/19 02:09:55;;;;;;;5.60;3.67;;;11.60;99.90;;;;;;5051132;28;20576;-64
2022/05/19 02:12:22;;;;;;;7.90;5.50;;;11.60;99.90;;;;;;5051384;28;20481;-62
2022/05/19 02:14:56;;;;;;;5.90;4.30;;;11.80;99.90;;;;;;5051288;28;20572;-59
2022/05/19 02:17:25;;;;;;;7.57;6.27;;;12.00;99.90;;;;;;5051329;28;20523;-61
2022/05/19 02:19:56;;;;;;;11.43;7.13;;;12.00;99.90;;;;;;5050557;28;20465;-63
2022/05/19 02:22:29;;;;;;;9.27;7.17;;;12.00;99.90;;;;;;5050938;28;20551;-64
2022/05/19 02:25:00;;;;;;;7.93;6.87;;;12.10;99.90;;;;;;5051014;28;20450;-61
2022/05/19 02:27:33;;;;;;;7.73;6.60;;;12.00;99.90;;;;;;5050942;28;20847;-60
2022/05/19 02:30:06;;;;;;;8.37;7.07;;;12.00;99.90;;;;;;5050841;28;20485;-60
2022/05/19 02:32:35;;;;;;;8.20;6.60;;;12.00;99.90;;;;;;5050581;28;20555;-63
2022/05/19 02:35:03;;;;;;;9.73;7.23;;;12.00;99.90;;;;;;5050876;28;20805;-63
2022/05/19 02:37:30;;;;;;;8.83;6.50;;;12.10;99.90;;;;;;5050677;28;20926;-62
2022/05/19 02:39:58;;;;;;;9.37;8.47;;;12.10;99.90;;;;;;5050357;28;20504;-62
2022/05/19 02:42:26;;;;;;;10.10;8.37;;;12.10;99.90;;;;;;5050545;28;20494;-63
2022/05/19 02:44:53;;;;;;;9.50;7.27;;;12.10;99.90;;;;;;5050835;28;20878;-64
2022/05/19 02:47:21;;;;;;;9.23;7.70;;;12.20;99.90;;;;;;5050373;28;20476;-63
2022/05/19 02:49:48;;;;;;;10.10;7.00;;;12.30;99.90;;;;;;5050645;28;20485;-60
2022/05/19 02:52:15;;;;;;;9.87;7.83;;;12.40;99.90;;;;;;5050576;28;20469;-63
2022/05/19 02:54:42;;;;;;;9.10;7.40;;;12.30;99.90;;;;;;5050563;28;20927;-61
2022/05/19 02:57:10;;;;;;;8.83;7.90;;;12.30;99.90;;;;;;5050552;28;20461;-61
2022/05/19 02:59:37;;;;;;;9.53;7.53;;;12.20;99.90;;;;;;5050302;28;20528;-59
2022/05/19 03:02:04;;;;;;;9.80;8.30;;;12.00;99.90;;;;;;5050561;28;20497;-62
2022/05/19 03:04:33;;;;;;;11.73;8.13;;;11.90;99.90;;;;;;5050337;28;20805;-61
2022/05/19 03:07:00;;;;;;;14.80;9.27;;;11.80;99.90;;;;;;5050420;28;20449;-62
2022/05/19 03:09:27;;;;;;;11.23;8.20;;;11.50;99.90;;;;;;5049911;28;20489;-64
2022/05/19 03:11:54;;;;;;;12.00;9.73;;;11.60;99.90;;;;;;5050303;28;20466;-61
2022/05/19 03:14:21;;;;;;;15.80;9.00;;;11.70;99.90;;;;;;5049997;28;20461;-61
2022/05/19 03:16:48;;;;;;;12.70;9.80;;;11.70;99.90;;;;;;5050136;28;20458;-63
2022/05/19 03:19:16;;;;;;;13.53;9.13;;;11.60;99.90;;;;;;5050208;28;20457;-63
2022/05/19 03:21:45;;;;;;;10.10;8.50;;;11.70;99.90;;;;;;5050050;28;20469;-62
2022/05/19 03:24:12;;;;;;;10.37;8.90;;;11.80;99.90;;;;;;5050312;28;20460;-60
2022/05/19 03:26:39;;;;;;;14.07;11.37;;;12.00;99.90;;;;;;5050174;28;20503;-60
2022/05/19 03:29:07;;;;;;;16.77;12.10;;;12.10;99.90;;;;;;5049612;28;20481;-63
2022/05/19 03:31:35;;;;;;;12.47;10.47;;;11.80;99.90;;;;;;5049674;28;20484;-61
2022/05/19 03:34:02;;;;;;;11.00;9.00;;;12.00;99.90;;;;;;5050041;28;20454;-60
2022/05/19 03:36:30;;;;;;;11.20;8.70;;;12.10;99.90;;;;;;5050008;28;20852;-60
2022/05/19 03:38:58;;;;;;;11.20;9.10;;;11.90;99.90;;;;;;5049922;28;20538;-63
2022/05/19 03:41:25;;;;;;;10.73;8.13;;;12.00;99.90;;;;;;5049362;28;20501;-61
2022/05/19 03:43:52;;;;;;;10.50;9.03;;;12.00;99.90;;;;;;5049750;28;20454;-61
2022/05/19 03:46:19;;;;;;;11.80;9.23;;;12.00;99.90;;;;;;5049598;28;20949;-63
2022/05/19 03:48:47;;;;;;;10.60;9.50;;;12.00;99.90;;;;;;5049624;28;20485;-60
2022/05/19 03:51:23;;;;;;;11.10;9.40;;;12.00;99.90;;;;;;5049742;28;21002;-63
2022/05/19 03:53:51;;;;;;;10.77;9.63;;;11.80;99.90;;;;;;5049561;28;20961;-62
2022/05/19 03:56:20;;;;;;;13.10;9.40;;;11.90;99.90;;;;;;5049525;28;20485;-62
2022/05/19 03:58:48;;;;;;;9.63;8.63;;;12.10;99.90;;;;;;5049137;28;20493;-63
2022/05/19 04:01:15;;;;;;;10.43;8.50;;;12.30;99.90;;;;;;5049132;28;20480;-62
2022/05/19 04:03:43;;;;;;;11.13;9.93;;;12.30;99.90;;;;;;5049499;28;20461;-62
2022/05/19 04:06:10;;;;;;;14.97;10.00;;;12.10;99.90;;;;;;5049758;28;20469;-61
2022/05/19 04:08:37;;;;;;;12.60;9.70;;;12.30;99.90;;;;;;5049600;28;20930;-60
2022/05/19 04:11:04;;;;;;;12.87;9.40;;;12.40;99.90;;;;;;5049258;28;21009;-63
2022/05/19 04:13:33;;;;;;;15.53;10.30;;;12.60;99.90;;;;;;5049437;28;20454;-63
2022/05/19 04:16:00;;;;;;;12.87;9.33;;;12.70;99.90;;;;;;5049572;28;20480;-61
2022/05/19 04:18:27;;;;;;;10.70;9.47;;;12.80;99.90;;;;;;5049634;28;20499;-61
2022/05/19 04:20:54;;;;;;;13.10;9.80;;;12.80;99.90;;;;;;5053556;28;20474;-64
2022/05/19 04:23:21;;;;;;;12.13;9.20;;;12.90;99.90;;;;;;5053604;28;20453;-62
2022/05/19 04:25:48;;;;;;;12.83;8.80;;;12.90;99.90;;;;;;5053442;28;20457;-59
2022/05/19 04:28:15;;;;;;;9.80;8.60;;;12.80;99.90;;;;;;5053615;28;20857;-62
2022/05/19 04:30:44;;;;;;;11.17;9.97;;;12.70;99.90;;;;;;5053229;28;20844;-62
2022/05/19 04:33:11;;;;;;;12.90;10.03;;;12.50;99.90;;;;;;5053433;28;20465;-63
2022/05/19 04:35:40;;;;;;;15.13;9.53;;;12.40;99.90;;;;;;5053160;28;20855;-59
2022/05/19 04:38:09;;;;;;;11.53;9.40;;;12.40;99.90;;;;;;5052973;28;20507;-63
2022/05/19 04:40:38;;;;;;;11.60;9.00;;;12.50;99.90;;;;;;5052771;28;20461;-61
2022/05/19 04:43:05;;;;;;;10.77;9.60;;;12.50;99.90;;;;;;5053173;28;21183;-62
2022/05/19 04:45:33;;;;;;;13.57;9.97;;;12.60;99.90;;;;;;5053127;28;20461;-60
2022/05/19 04:48:02;;;;;;;12.27;8.93;;;12.70;99.90;;;;;;5053095;28;20453;-62
2022/05/19 04:50:29;;;;;;;12.17;9.20;;;12.80;99.90;;;;;;5052569;28;20490;-62
2022/05/19 04:52:58;;;;;;;12.70;9.40;;;12.90;99.90;;;;;;5052767;28;20453;-60
2022/05/19 04:55:26;;;;;;;11.00;9.20;;;13.00;99.90;;;;;;5052798;28;20488;-61
2022/05/19 04:57:53;;;;;;;13.93;10.10;;;13.10;99.90;;;;;;5052972;28;20453;-62
2022/05/19 05:00:21;;;;;;;11.10;8.10;;;13.30;99.90;;;;;;5052898;28;20457;-62
2022/05/19 05:02:48;;;;;;;13.33;9.40;;;13.30;99.90;;;;;;5052634;28;20477;-60
2022/05/19 05:05:17;;;;;;;14.73;10.60;;;13.40;99.90;;;;;;5052650;28;20454;-66
2022/05/19 05:07:44;;;;;;;12.17;10.53;;;13.50;99.90;;;;;;5052817;28;20835;-62
2022/05/19 05:10:12;;;;;;;10.90;9.40;;;13.50;99.90;;;;;;5052576;28;20498;-61
2022/05/19 05:12:39;;;;;;;13.17;9.33;;;13.60;99.90;;;;;;5051879;28;20555;-59
2022/05/19 05:15:07;;;;;;;13.40;9.53;;;13.60;99.90;;;;;;5052108;28;20461;-60
2022/05/19 05:17:35;;;;;;;11.63;9.83;;;13.80;99.90;;;;;;5052115;28;20465;-63
2022/05/19 05:20:03;;;;;;;11.43;9.30;;;13.80;99.90;;;;;;5052588;28;20450;-62
2022/05/19 05:22:34;;;;;;;12.07;9.07;;;13.90;99.90;;;;;;5052398;28;20496;-68
2022/05/19 05:25:01;;;;;;;14.33;9.50;;;14.00;99.90;;;;;;5052330;28;20469;-63
2022/05/19 05:27:28;;;;;;;10.93;9.27;;;14.00;99.90;;;;;;5052243;28;20942;-63
2022/05/19 05:29:55;;;;;;;11.33;10.07;;;14.10;99.90;;;;;;5051724;28;20489;-62
2022/05/19 05:32:23;;;;;;;11.87;9.73;;;14.10;99.90;;;;;;5051429;28;20478;-64
2022/05/19 05:34:50;;;;;;;12.30;10.53;;;14.20;99.90;;;;;;5051971;28;20469;-63
2022/05/19 05:37:17;;;;;;;11.93;10.73;;;14.20;99.90;;;;;;5052104;28;20450;-69
2022/05/19 05:39:45;;;;;;;11.20;10.00;;;14.20;99.90;;;;;;5051985;28;20873;-60
2022/05/19 05:42:12;;;;;;;10.73;9.53;;;14.00;99.90;;;;;;5051399;28;20901;-67
2022/05/19 05:44:39;;;;;;;16.33;11.70;;;13.70;99.90;;;;;;5051690;28;20461;-63
2022/05/19 05:47:06;;;;;;;12.63;11.33;;;13.40;99.90;;;;;;5051789;28;20457;-63
2022/05/19 05:49:33;;;;;;;16.40;12.93;;;13.50;99.90;;;;;;5051836;28;20478;-62
2022/05/19 05:52:00;;;;;;;14.70;13.20;;;13.60;99.90;;;;;;5051678;28;20469;-61
2022/05/19 05:54:27;;;;;;;15.53;12.40;;;13.70;99.90;;;;;;5051618;28;20461;-62
2022/05/19 05:56:56;;;;;;;15.50;12.73;;;13.90;99.90;;;;;;5051067;28;20457;-63
2022/05/19 05:59:23;;;;;;;16.80;11.53;;;14.20;99.90;;;;;;5051549;28;20477;-61
2022/05/19 06:01:51;;;;;;;12.73;11.50;;;14.50;99.90;;;;;;5051611;28;20479;-59
2022/05/19 06:04:18;;;;;;;16.33;12.03;;;14.70;99.90;;;;;;5051279;28;20458;-61
2022/05/19 06:06:46;;;;;;;19.10;14.77;;;14.90;99.90;;;;;;5051526;28;20458;-60
2022/05/19 06:09:13;;;;;;;17.43;11.90;;;15.10;99.90;;;;;;5051305;28;20876;-60
2022/05/19 06:11:41;;;;;;;16.00;12.17;;;15.20;99.90;;;;;;5050915;28;20502;-63
2022/05/19 06:14:11;;;;;;;13.90;12.50;;;15.30;99.90;;;;;;5051121;28;20487;-62
2022/05/19 06:16:38;;;;;;;17.30;12.20;;;15.30;99.90;;;;;;5051331;28;20457;-62
2022/05/19 06:19:05;;;;;;;18.93;12.67;;;15.20;99.90;;;;;;5051206;28;20489;-63
2022/05/19 06:21:36;;;;;;;14.00;12.50;;;15.00;99.90;;;;;;5051037;28;20478;-61
2022/05/19 06:24:08;;;;;;;13.57;11.20;;;14.90;99.90;;;;;;5051149;28;20469;-61
2022/05/19 06:26:35;;;;;;;15.47;12.07;;;14.80;99.90;;;;;;5051064;28;20446;-63
2022/05/19 06:29:02;;;;;;;12.67;11.37;;;14.70;99.90;;;;;;5051124;28;20766;-63
2022/05/19 06:31:32;;;;;;;13.93;11.70;;;14.90;99.90;;;;;;5050876;28;20505;-63
2022/05/19 06:33:59;;;;;;;12.07;10.17;;;14.80;99.90;;;;;;5050966;28;20457;-66
2022/05/19 06:36:26;;;;;;;14.03;9.80;;;15.20;99.90;;;;;;5050914;28;20485;-62
2022/05/19 06:38:54;;;;;;;13.20;9.10;;;15.60;99.90;;;;;;5050316;28;20449;-62
2022/05/19 06:44:06;;;;;;;10.50;8.40;;;16.00;99.90;;;;;;5049656;28;21054;-63
2022/05/19 06:46:34;;;;;;;11.67;8.63;;;16.20;99.90;;;;;;5050949;28;20465;-67
2022/05/19 06:49:04;;;;;;;12.90;9.50;;;16.50;99.90;;;;;;5050753;28;20453;-65
2022/05/19 06:51:31;;;;;;;15.10;8.93;;;16.50;99.90;;;;;;5050253;28;20501;-67
2022/05/19 06:53:59;;;;;;;10.93;9.40;;;16.50;99.90;;;;;;5050590;28;20461;-63
2022/05/19 06:56:26;;;;;;;11.40;9.00;;;16.40;99.90;;;;;;5050290;28;20498;-61
2022/05/19 06:58:53;;;;;;;9.83;8.30;;;16.50;99.90;;;;;;5050273;28;20844;-63
2022/05/19 07:01:20;;;;;;;11.20;8.27;;;16.70;99.90;;;;;;5050370;28;20573;-64
2022/05/19 07:03:49;;;;;;;11.77;8.70;;;16.90;99.90;;;;;;5050184;28;20458;-61
2022/05/19 07:06:16;;;;;;;12.10;8.50;;;16.90;99.90;;;;;;5050329;28;20449;-63
2022/05/19 07:08:43;;;;;;;10.90;7.40;;;17.00;99.90;;;;;;5050232;28;20509;-64
2022/05/19 07:11:24;;;;;;;9.80;7.37;;;17.30;99.90;;;;;;5050219;28;20501;-65
2022/05/19 07:13:52;;;;;;;13.73;7.57;;;17.50;99.90;;;;;;5050282;28;20541;-63
2022/05/19 07:16:19;;;;;;;12.00;7.33;;;17.70;99.90;;;;;;5050011;28;20532;-63
2022/05/19 07:18:48;;;;;;;11.80;7.50;;;17.90;99.90;;;;;;5050195;28;20458;-65
2022/05/19 07:21:16;;;;;;;13.00;7.30;;;18.00;99.90;;;;;;5049940;28;20497;-65
2022/05/19 07:23:43;;;;;;;9.10;6.83;;;18.30;99.90;;;;;;5050350;28;20859;-66
2022/05/19 07:26:10;;;;;;;11.20;7.50;;;18.40;99.90;;;;;;5049550;28;20945;-62
2022/05/19 07:28:37;;;;;;;13.27;6.60;;;18.30;99.90;;;;;;5050215;28;20458;-64
2022/05/19 07:31:04;;;;;;;13.37;7.33;;;18.70;99.90;;;;;;5049783;28;20500;-63
2022/05/19 07:33:36;;;;;;;9.13;6.97;;;18.90;99.90;;;;;;5049974;28;20508;-66
2022/05/19 07:36:08;;;;;;;9.60;5.90;;;18.80;99.90;;;;;;5049767;28;20450;-64
2022/05/19 07:38:35;;;;;;;10.93;6.30;;;18.50;99.90;;;;;;5049984;28;20477;-63
2022/05/19 07:41:03;;;;;;;9.17;5.87;;;18.50;99.90;;;;;;5048785;28;20497;-63
2022/05/19 07:43:37;;;;;;;13.53;6.40;;;18.70;99.90;;;;;;5049445;28;20461;-62
2022/05/19 07:46:05;;;;;;;13.40;7.40;;;18.90;99.90;;;;;;5049495;28;20461;-65
2022/05/19 07:48:33;;;;;;;11.30;5.90;;;19.10;99.90;;;;;;5049706;28;20905;-67
2022/05/19 07:51:00;;;;;;;11.27;5.70;;;19.50;99.90;;;;;;5049638;28;20481;-67
2022/05/19 07:53:28;;;;;;;7.33;5.80;;;19.70;99.90;;;;;;5049468;28;20461;-63
2022/05/19 07:55:56;;;;;;;8.80;6.53;;;19.60;99.90;;;;;;5049327;28;20465;-64
2022/05/19 07:58:23;;;;;;;8.47;5.83;;;19.60;99.80;;;;;;5049455;28;20804;-66
2022/05/19 08:00:51;;;;;;;10.60;5.80;;;19.70;99.40;;;;;;5049277;28;20958;-65
2022/05/19 08:03:19;;;;;;;9.90;5.10;;;19.70;98.80;;;;;;5049577;28;20545;-64
2022/05/19 08:05:46;;;;;;;10.30;6.33;;;19.90;98.50;;;;;;5048962;28;20493;-67
2022/05/19 08:08:13;;;;;;;7.90;5.27;;;19.70;97.50;;;;;;5049306;28;20823;-64
2022/05/19 08:10:41;;;;;;;9.40;5.20;;;19.70;96.50;;;;;;5048884;28;20489;-65
2022/05/19 08:15:53;;;;;;;7.53;4.20;;;20.10;94.60;;;;;;5049322;28;20480;-66
2022/05/19 08:18:21;;;;;;;6.73;4.00;;;20.30;91.60;;;;;;5049380;28;20453;-65
2022/05/19 08:20:50;;;;;;;5.43;3.47;;;20.60;87.30;;;;;;5049161;28;20462;-64
2022/05/19 08:23:21;;;;;;;7.23;3.40;;;20.60;80.10;;;;;;5048997;28;20950;-63
2022/05/19 08:25:50;;;;;;;7.50;4.00;;;20.50;85.40;;;;;;5049260;28;20453;-64
2022/05/19 08:28:18;;;;;;;6.30;3.03;;;20.40;81.60;;;;;;5049148;28;20460;-66
2022/05/19 08:30:48;;;;;;;7.70;3.27;;;20.10;80.80;;;;;;5049037;28;20496;-63
2022/05/19 08:33:16;;;;;;;5.33;2.63;;;20.50;81.90;;;;;;5049159;28;20540;-66
2022/05/19 08:35:43;;;;;;;6.43;3.60;;;20.80;78.60;;;;;;5049058;28;20532;-66
2022/05/19 08:38:11;;;;;;;6.80;3.30;;;21.10;78.70;;;;;;5048693;28;20446;-68
2022/05/19 08:40:44;;;;;;;4.63;2.00;;;21.30;77.70;;;;;;5048634;28;20959;-65
2022/05/19 08:43:15;;;;;;;6.23;2.60;;;21.10;72.10;;;;;;5049271;28;20548;-63
2022/05/19 08:45:47;;;;;;;4.90;2.33;;;21.10;67.60;;;;;;5049288;28;20450;-65
2022/05/19 08:48:19;;;;;;;8.07;1.83;;;21.10;68.90;;;;;;5048954;28;20467;-63
2022/05/19 08:50:50;;;;;;;5.10;2.23;;;21.40;64.60;;;;;;5048764;28;20608;-63
2022/05/19 08:53:18;;;;;;;9.60;2.23;;;21.60;63.30;;;;;;5054236;28;20460;-64
2022/05/19 08:55:51;;;;;;;7.17;1.83;;;21.80;66.40;;;;;;5064804;28;20457;-63
2022/05/19 08:58:41;;;;;;;5.40;1.33;;;22.20;61.50;;;;;;5068112;28;20449;-65
2022/05/19 09:01:15;;;;;;;10.33;1.27;;;22.40;61.60;;;;;;5057366;28;20817;-66
2022/05/19 09:03:50;;;;;;;3.70;1.03;;;22.40;58.70;;;;;;5044047;28;20955;-64
2022/05/19 09:06:39;;;;;;;4.07;1.53;;;22.50;55.80;;;;;;5048645;28;20449;-64
2022/05/19 09:09:24;;;;;;;3.80;1.30;;;22.40;55.60;;;;;;5050447;28;20490;-66
2022/05/19 09:11:57;;;;;;;6.40;2.07;;;22.30;56.40;;;;;;5050971;28;20496;-63
2022/05/19 09:14:27;;;;;;;4.30;1.60;;;22.50;58.80;;;;;;5051354;28;20548;-65
2022/05/19 09:16:58;;;;;;;5.20;1.60;;;22.50;56.20;;;;;;5052324;28;20511;-62
2022/05/19 09:19:33;;;;;;;4.40;2.27;;;22.40;55.40;;;;;;5051963;28;20453;-60
2022/05/19 09:22:05;;;;;;;5.40;2.43;;;22.30;56.60;;;;;;5051808;28;20480;-62
2022/05/19 09:24:32;;;;;;;3.70;1.77;;;22.10;56.10;;;;;;5052116;28;20453;-63
2022/05/19 09:27:01;;;;;;;4.70;1.57;;;22.20;55.80;;;;;;5052293;28;20458;-61
2022/05/19 09:29:35;;;;;;;7.37;2.10;;;22.30;54.90;;;;;;5052218;28;20489;-60
2022/05/19 09:32:12;;;;;;;9.43;1.63;;;22.20;54.90;;;;;;5051788;28;20549;-61
2022/05/19 09:34:41;;;;;;;7.53;1.90;;;22.30;53.40;;;;;;5051843;28;20479;-62
2022/05/19 09:37:11;;;;;;;8.40;2.23;;;22.40;53.30;;;;;;5051928;28;20458;-63
2022/05/19 09:39:47;;;;;;;4.23;2.00;;;22.50;55.10;;;;;;5051441;28;20454;-62
2022/05/19 09:42:19;;;;;;;4.10;1.80;;;22.60;56.80;;;;;;5051285;28;20477;-61
2022/05/19 09:44:51;;;;;;;6.27;3.37;;;23.00;55.80;;;;;;5051459;28;20464;-62
2022/05/19 09:47:24;;;;;;;4.73;2.07;;;23.20;55.80;;;;;;5051549;28;20553;-61
2022/05/19 09:49:57;;;;;;;5.80;1.97;;;23.10;54.50;;;;;;5051655;28;20454;-62
2022/05/19 09:52:27;;;;;;;5.70;2.07;;;23.20;54.10;;;;;;5051208;28;20493;-60
2022/05/19 09:55:01;;;;;;;3.70;1.60;;;23.30;53.30;;;;;;5051341;28;20454;-61
2022/05/19 09:57:39;;;;;;;9.37;5.10;;;23.30;52.40;;;;;;5051325;28;20930;-63
2022/05/19 10:00:26;;;;;;;5.47;1.97;;;23.40;54.30;;;;;;5051324;28;21230;-61
2022/05/19 10:02:56;;;;;;;4.63;1.60;;;23.50;55.60;;;;;;5069786;28;20557;-62
2022/05/19 10:05:33;;;;;;;5.50;1.60;;;23.70;54.70;;;;;;5071614;28;20445;-61
2022/05/19 10:08:05;;;;;;;8.10;1.77;;;23.60;52.40;;;;;;5071183;28;21020;-62
2022/05/19 10:10:35;;;;;;;4.20;1.93;;;23.40;52.20;;;;;;5070953;28;20770;-63
2022/05/19 10:13:07;;;;;;;7.33;1.77;;;23.40;51.70;;;;;;5071193;28;20460;-60
2022/05/19 10:15:50;;;;;;;4.60;1.37;;;23.20;52.30;;;;;;5070881;28;20453;-61
2022/05/19 10:18:32;;;;;;;4.67;1.90;;;23.10;52.50;;;;;;5070926;28;20539;-61
2022/05/19 10:21:12;;;;;;;6.43;1.37;;;23.00;52.20;;;;;;5071217;28;20460;-62
2022/05/19 10:23:51;;;;;;;5.60;1.83;;;23.20;54.70;;;;;;5071096;28;20448;-61
2022/05/19 10:26:35;;;;;;;9.63;2.00;;;23.50;51.90;;;;;;5071098;28;20499;-64
2022/05/19 10:32:50;;;;;;;5.50;1.57;;;23.90;51.50;;;;;;5070451;28;20563;-60
2022/05/19 10:35:29;;;;;;;6.00;2.30;;;24.10;50.30;;;;;;5050232;28;20832;-61
2022/05/19 10:38:16;;;;;;;3.73;1.50;;;24.40;50.30;;;;;;5052787;28;20484;-64
2022/05/19 10:40:57;;;;;;;6.27;1.97;;;23.90;48.50;;;;;;5030339;28;20458;-61
2022/05/19 10:43:39;;;;;;;4.30;1.73;;;23.90;50.90;;;;;;5041350;28;20453;-59
2022/05/19 10:46:10;;;;;;;3.70;1.50;;;23.80;49.30;;;;;;5031072;28;20442;-60
2022/05/19 10:48:54;;;;;;;6.10;1.67;;;24.00;49.80;;;;;;5030286;28;20573;-63
2022/05/19 10:51:38;;;;;;;6.27;2.03;;;24.10;52.00;;;;;;5030414;28;21001;-61
2022/05/19 10:54:24;;;;;;;6.40;2.17;;;24.50;52.70;;;;;;5030722;28;20454;-62
2022/05/19 10:57:09;;;;;;;5.80;2.30;;;24.90;51.20;;;;;;5030541;28;20869;-65
2022/05/19 10:59:53;;;;;;;5.77;3.30;;;25.10;51.90;;;;;;5029993;28;20461;-64
2022/05/19 11:02:40;;;;;;;4.73;2.87;;;25.30;49.50;;;;;;5030192;28;20462;-62
2022/05/19 11:05:23;;;;;;;6.53;1.60;;;25.50;49.60;;;;;;5030125;28;20478;-63
2022/05/19 11:08:03;;;;;;;5.73;2.03;;;25.80;49.30;;;;;;5030388;28;20455;-60
2022/05/19 11:10:38;;;;;;;4.33;1.60;;;26.00;47.30;;;;;;5030253;28;20451;-63
2022/05/19 11:13:18;;;;;;;4.43;1.90;;;26.10;47.40;;;;;;5030297;28;20831;-62
2022/05/19 11:15:50;;;;;;;5.60;2.23;;;25.90;47.20;;;;;;5030004;28;20533;-64
2022/05/19 11:18:23;;;;;;;5.47;2.40;;;25.70;46.80;;;;;;5030261;28;20446;-63
2022/05/19 11:21:06;;;;;;;8.40;2.23;;;25.40;48.10;;;;;;5029952;28;20561;-63
2022/05/19 11:23:46;;;;;;;6.77;2.10;;;25.40;48.40;;;;;;5030276;28;20451;-65
2022/05/19 11:26:27;;;;;;;3.87;1.90;;;25.40;49.80;;;;;;5029732;28;20806;-60
2022/05/19 11:29:08;;;;;;;5.40;2.13;;;25.30;45.70;;;;;;5029234;28;20520;-63
2022/05/19 11:31:43;;;;;;;4.23;1.87;;;25.60;48.20;;;;;;5029850;28;20490;-62
2022/05/19 11:34:20;;;;;;;4.20;2.10;;;25.80;47.60;;;;;;5029927;28;20931;-62
2022/05/19 11:36:55;;;;;;;4.80;1.87;;;25.80;46.90;;;;;;5030842;28;20455;-64
2022/05/19 11:39:31;;;;;;;6.47;1.70;;;26.10;46.10;;;;;;5049680;28;20477;-65
2022/05/19 11:42:08;;;;;;;5.73;1.83;;;26.10;45.00;;;;;;5049471;28;20985;-62
2022/05/19 11:44:38;;;;;;;4.30;1.90;;;26.10;45.70;;;;;;5049732;28;20453;-62
2022/05/19 11:47:13;;;;;;;4.70;1.80;;;26.20;46.80;;;;;;5049764;28;20461;-64
2022/05/19 11:55:31;;;;;;;4.40;2.20;;;26.80;46.40;;;;;;5049414;28;20459;-64
2022/05/19 11:58:01;;;;;;;5.33;1.70;;;27.00;45.90;;;;;;5049608;28;20453;-65
2022/05/19 12:00:32;;;;;;;5.53;2.27;;;27.20;45.10;;;;;;5049356;28;20464;-65
2022/05/19 12:03:03;;;;;;;5.73;1.87;;;27.30;44.00;;;;;;5049343;28;20454;-61
2022/05/19 12:05:35;;;;;;;5.47;2.10;;;27.30;43.80;;;;;;5049473;28;20478;-64
2022/05/19 12:08:13;;;;;;;5.03;1.97;;;27.40;44.40;;;;;;5049271;28;20814;-62
2022/05/19 12:10:49;;;;;;;4.53;2.37;;;27.40;47.40;;;;;;5048824;28;20461;-64
2022/05/19 12:13:19;;;;;;;8.10;2.40;;;27.60;43.80;;;;;;5049576;28;20768;-66
2022/05/19 12:15:55;;;;;;;4.73;2.37;;;27.40;42.10;;;;;;5049548;28;20485;-64
2022/05/19 12:19:02;;;;;;;5.20;2.30;;;26.80;41.80;;;;;;5049258;28;20450;-63
2022/05/19 12:21:56;;;;;;;5.53;2.30;;;26.10;43.10;;;;;;4987010;28;20527;-64
2022/05/19 12:24:28;;;;;;;8.70;2.50;;;26.20;45.70;;;;;;5024489;28;20812;-65
2022/05/19 12:26:59;;;;;;;5.50;1.90;;;26.40;43.20;;;;;;5049119;28;20941;-63
2022/05/19 12:29:35;;;;;;;3.90;1.80;;;26.30;42.90;;;;;;5049024;28;20478;-65
2022/05/19 12:32:16;;;;;;;7.67;1.90;;;26.00;43.00;;;;;;5048873;28;20501;-66
2022/05/19 12:34:47;;;;;;;8.63;2.33;;;26.10;44.70;;;;;;5048809;28;20477;-64
2022/05/19 12:37:38;;;;;;;3.70;1.87;;;26.10;41.90;;;;;;5048431;28;20457;-62
2022/05/19 12:40:30;;;;;;;10.30;2.60;;;25.80;44.60;;;;;;5048526;28;20527;-63
2022/05/19 12:43:17;;;;;;;4.93;1.90;;;25.70;43.20;;;;;;5053027;28;20471;-63
2022/05/19 12:45:48;;;;;;;4.80;2.37;;;25.80;48.40;;;;;;5052953;28;20454;-62
2022/05/19 12:48:44;;;;;;;4.50;2.07;;;26.20;46.80;;;;;;5052683;28;20481;-64
2022/05/19 12:51:16;;;;;;;5.90;2.00;;;26.90;45.40;;;;;;5052735;28;20449;-64
2022/05/19 12:53:59;;;;;;;4.00;1.57;;;27.30;45.50;;;;;;5053042;28;20547;-62
2022/05/19 12:56:52;;;;;;;4.33;1.93;;;27.70;42.90;;;;;;5052588;28;20541;-64
2022/05/19 12:59:48;;;;;;;6.70;2.13;;;27.90;41.40;;;;;;5052900;28;20452;-62
2022/05/19 13:02:25;;;;;;;4.33;2.00;;;27.70;40.80;;;;;;5039040;28;20532;-62
2022/05/19 13:04:58;;;;;;;5.33;2.13;;;27.80;43.80;;;;;;5052427;28;21042;-63
2022/05/19 13:07:29;;;;;;;4.03;1.70;;;28.00;41.10;;;;;;5052614;28;20457;-65
2022/05/19 13:10:02;;;;;;;4.37;1.90;;;28.40;40.50;;;;;;5052482;28;20523;-66
2022/05/19 13:12:37;;;;;;;4.17;2.10;;;28.70;42.20;;;;;;5052093;28;20501;-64
2022/05/19 13:15:07;;;;;;;5.50;2.07;;;29.30;39.80;;;;;;5052175;28;20886;-64
2022/05/19 13:17:38;;;;;;;4.50;1.53;;;29.40;39.60;;;;;;5052282;28;20466;-64
2022/05/19 13:20:12;;;;;;;4.53;1.67;;;29.40;39.60;;;;;;5052452;28;20904;-64